Aquasco, MD

10:11 AM EDT on September 30, 2014 (GMT -0400)
Hugesville/Waldorf - Hidden Valley | Change Station
CLOSE
Current Station
Personal Weather Station
Location: Waldorf, MD
Elevation: 174 ft
Nearby Weather Stations

Elev 174 ft 38.56 °N, 76.79 °W | Updated 9 minutes ago

Overcast
Overcast
64.9 °F
Feels Like 64.9 °F
N
0.0
Wind Variable Wind from SW
Gusts 0.0 mph

Today
High -- | Low -- °F
--% Chance of Precip.
Yesterday
High -- | Low -- °F
Precip. -- in
7:01 AM 6:51 PM
Waxing Crescent, 37% visible
Pressure 29.96 in
Visibility 10.0 miles
Clouds Overcast 600 ft
Dew Point 64 °F
Humidity 95%
Rainfall 0.00 in
Snow Depth Not available.
UV 1 out of 12
Pollen 2.90 out of 12
Air Quality Not available.
Flu Activity Not available.
METAR KADW 301358Z AUTO 19003KT 10SM OVC006 18/18 A2994 RMK AO2 SLP144 T01760175

More Conditions Fewer Conditions

Pressure 29.96 in
Visibility 10.0 miles
Clouds Overcast 600 ft
Dew Point 64 °F
Humidity 95%
Rainfall 0.00 in
Snow Depth Not available.
UV 1 out of 12
Pollen 2.90 out of 12
Air Quality Not available.
Flu Activity Not available.
METAR KADW 301358Z AUTO 19003KT 10SM OVC006 18/18 A2994 RMK AO2 SLP144 T01760175

More Conditions Fewer Conditions

10-Day Weather Forecast

Almanac

Astronomy

Sep. 30, 2014 Rise Set
Actual Time 7:01 AM EDT 6:51 PM EDT
Civil Twilight 6:35 AM EDT 7:17 PM EDT
Nautical Twilight 6:04 AM EDT 7:48 PM EDT
Astronomical Twilight 5:33 AM EDT 8:19 PM EDT
Moon 1:04 PM EDT 11:22 PM EDT
Length of Visible Light 12h 42m
Length of Day
11h 49m
Tomorrow will be 2m 29s shorter.
Waxing Crescent, 37% of the Moon is Illuminated
Today
Waxing Crescent
Oct 1
First Quarter
Oct 8
Full
Oct 15
Last Quarter
Oct 23
New

Today's Extremes

State Highs State Lows

Community

WunderPhotos

Upload Photos

1,757,643 photos uploaded!

Nearby

Snow Depth

Station Depth Elevation
No new snow has been reported.

Earthquake Activity

City Distance Mag. Time & Date
No recent earthquake activity has been reported nearby.
Minimum magnitude displayed is 2.5.

Coastal Water Temperatures

Place Temperature
Solomons Island, MD 72.0 °F
Cambridge, MD 71.1 °F

Nearby Weather Stations